Time;durP1;ratioP1;P1;durP2;ratioP2;P2;SDS_P1;SDS_P2;PMS_P1;PMS_P2;Temp;Humidity;BMP_temperature;BMP_pressure;BME280_temperature;BME280_humidity;BME280_pressure;Samples;Min_cycle;Max_cycle;Signal;HPM_P1;HPM_P2
2021/03/09 00:00:09;;;;;;;34.58;15.80;;;;;;;4.55;73.83;102000.44;4941981;28;20145;-74
2021/03/09 00:02:35;;;;;;;36.03;16.83;;;;;;;4.47;73.88;101997.41;4964192;28;20078;-73
2021/03/09 00:05:01;;;;;;;34.30;15.82;;;;;;;4.48;73.72;101993.88;4938862;28;20067;-73
2021/03/09 00:07:27;;;;;;;33.25;16.10;;;;;;;4.38;74.15;101989.22;4931582;28;20082;-73
2021/03/09 00:09:53;;;;;;;31.85;14.65;;;;;;;4.41;74.10;101992.53;4942815;28;20118;-74
2021/03/09 00:12:20;;;;;;;33.55;15.13;;;;;;;4.29;74.34;101993.97;4962595;28;20092;-75
2021/03/09 00:14:46;;;;;;;33.38;15.43;;;;;;;4.28;74.13;101983.66;4958767;28;20093;-72
2021/03/09 00:17:16;;;;;;;28.75;12.20;;;;;;;4.11;73.98;101985.31;4947527;28;20055;-75
2021/03/09 00:19:42;;;;;;;34.60;15.15;;;;;;;4.16;74.33;101985.09;4963665;28;20235;-73
2021/03/09 00:22:08;;;;;;;27.92;13.10;;;;;;;4.09;74.64;101970.75;4944333;28;20098;-73
2021/03/09 00:24:34;;;;;;;26.83;12.80;;;;;;;4.08;74.67;101984.66;4943867;28;20062;-73
2021/03/09 00:27:00;;;;;;;26.75;13.35;;;;;;;4.08;75.25;101975.09;4939935;28;20155;-73
2021/03/09 00:29:26;;;;;;;28.75;12.23;;;;;;;4.06;74.68;101982.13;4959101;28;20112;-73
2021/03/09 00:31:52;;;;;;;24.30;12.85;;;;;;;4.04;75.09;101973.56;4941011;28;20572;-74
2021/03/09 00:34:19;;;;;;;26.73;12.82;;;;;;;3.98;75.31;101971.28;4953342;28;20059;-74
2021/03/09 00:36:45;;;;;;;31.63;13.93;;;;;;;4.00;75.63;101974.66;4941822;28;20076;-74
2021/03/09 00:39:11;;;;;;;28.50;12.90;;;;;;;4.05;75.78;101967.44;4957451;28;20059;-74
2021/03/09 00:41:37;;;;;;;31.35;13.43;;;;;;;3.98;75.96;101963.50;4963655;28;20138;-73
2021/03/09 00:44:03;;;;;;;30.23;13.35;;;;;;;3.95;76.20;101967.06;4959144;28;20170;-74
2021/03/09 00:46:32;;;;;;;31.17;13.90;;;;;;;3.94;76.23;101964.56;4944875;28;20145;-74
2021/03/09 00:48:58;;;;;;;28.10;12.75;;;;;;;3.82;76.25;101950.41;4955238;28;20067;-74
2021/03/09 00:51:24;;;;;;;25.08;12.88;;;;;;;3.93;76.73;101942.09;4964355;28;20100;-74
2021/03/09 00:53:50;;;;;;;31.52;13.10;;;;;;;3.99;76.52;101954.78;4952212;28;20055;-75
2021/03/09 00:56:17;;;;;;;27.20;12.60;;;;;;;4.02;76.31;101946.84;4961280;28;20465;-74
2021/03/09 00:58:42;;;;;;;32.33;13.63;;;;;;;4.01;76.21;101950.34;4963718;28;20067;-74
2021/03/09 01:01:09;;;;;;;28.08;14.43;;;;;;;3.92;76.63;101945.59;4958996;28;20525;-74
2021/03/09 01:03:35;;;;;;;31.80;13.68;;;;;;;3.90;76.54;101942.25;4956020;28;20055;-74
2021/03/09 01:06:01;;;;;;;39.88;14.32;;;;;;;3.92;77.12;101938.66;4943404;28;20086;-73
2021/03/09 01:08:27;;;;;;;38.75;16.92;;;;;;;3.95;76.92;101943.69;4938957;28;20054;-73
2021/03/09 01:10:53;;;;;;;36.90;15.70;;;;;;;3.96;76.67;101947.16;4938382;28;20058;-73
2021/03/09 01:13:19;;;;;;;37.13;17.20;;;;;;;3.96;77.49;101934.19;4959608;28;20471;-73
2021/03/09 01:15:45;;;;;;;38.80;17.58;;;;;;;3.97;77.44;101928.88;4965813;28;20051;-74
2021/03/09 01:18:18;;;;;;;45.22;17.83;;;;;;;4.05;77.56;101938.06;4941947;28;20062;-73
2021/03/09 01:20:44;;;;;;;34.47;16.45;;;;;;;4.06;77.05;101925.00;4949443;28;20462;-74
2021/03/09 01:23:10;;;;;;;35.97;17.30;;;;;;;3.96;77.40;101923.78;4960555;28;20145;-73
2021/03/09 01:25:36;;;;;;;41.70;18.08;;;;;;;3.95;77.34;101925.53;4966869;28;20058;-73
2021/03/09 01:28:02;;;;;;;47.83;21.13;;;;;;;4.01;77.39;101923.56;4960870;28;20059;-73
2021/03/09 01:30:28;;;;;;;43.42;20.08;;;;;;;3.93;77.13;101913.53;4963622;28;20513;-74
2021/03/09 01:32:54;;;;;;;51.00;21.48;;;;;;;3.95;77.55;101924.69;4963940;28;20577;-74
2021/03/09 01:35:20;;;;;;;47.22;21.20;;;;;;;3.89;77.86;101912.03;4949983;28;20141;-73
2021/03/09 01:37:46;;;;;;;44.58;20.45;;;;;;;3.88;78.21;101918.13;4965423;28;20090;-73
2021/03/09 01:40:13;;;;;;;53.20;22.33;;;;;;;3.83;78.35;101914.94;4961459;28;20149;-74
2021/03/09 01:42:39;;;;;;;55.90;24.42;;;;;;;3.91;78.90;101908.44;4966059;28;20621;-74
2021/03/09 01:45:06;;;;;;;49.58;22.10;;;;;;;3.89;78.48;101907.66;4958388;28;20141;-74
2021/03/09 01:47:40;;;;;;;54.10;25.10;;;;;;;3.71;79.03;101888.66;4945637;28;20214;-74
2021/03/09 01:50:07;;;;;;;48.90;22.92;;;;;;;3.69;79.12;101884.47;4961206;28;20054;-74
2021/03/09 01:52:34;;;;;;;48.38;23.00;;;;;;;3.73;79.25;101891.19;4973813;28;20101;-74
2021/03/09 01:55:00;;;;;;;53.38;23.23;;;;;;;3.64;79.38;101883.84;4963524;28;20090;-74
2021/03/09 01:57:26;;;;;;;53.75;24.50;;;;;;;3.77;79.91;101882.31;4951465;28;20111;-73
2021/03/09 01:59:53;;;;;;;52.95;24.45;;;;;;;3.77;80.01;101871.94;4948229;28;20550;-74
2021/03/09 02:02:19;;;;;;;49.22;22.70;;;;;;;3.72;79.71;101879.97;4943301;28;20137;-74
2021/03/09 02:04:45;;;;;;;53.28;24.83;;;;;;;3.64;80.87;101869.09;4953541;28;20062;-74
2021/03/09 02:07:11;;;;;;;57.67;25.80;;;;;;;3.56;80.32;101861.69;4939419;28;20086;-74
2021/03/09 02:09:37;;;;;;;52.17;24.40;;;;;;;3.66;80.27;101862.09;4957781;28;21066;-73
2021/03/09 02:12:22;;;;;;;52.83;24.63;;;;;;;3.66;80.43;101861.25;4962604;28;20585;-73
2021/03/09 02:15:10;;;;;;;58.97;24.38;;;;;;;3.57;80.22;101854.78;4957065;28;20062;-73
2021/03/09 02:18:00;;;;;;;64.22;26.90;;;;;;;3.59;80.99;101850.34;4966729;28;20086;-74
2021/03/09 02:21:00;;;;;;;67.63;30.10;;;;;;;3.59;80.50;101845.16;4960897;28;20145;-74
2021/03/09 02:23:50;;;;;;;62.88;27.60;;;;;;;3.57;80.67;101834.03;4965662;28;20078;-73
2021/03/09 02:26:34;;;;;;;70.10;28.20;;;;;;;3.61;80.49;101832.94;4954598;28;20150;-73
2021/03/09 02:29:19;;;;;;;67.55;29.63;;;;;;;3.67;80.58;101829.22;4958262;28;20066;-73
2021/03/09 02:31:50;;;;;;;64.22;27.23;;;;;;;3.60;80.67;101822.63;4965819;28;20141;-73
2021/03/09 02:34:28;;;;;;;59.90;28.70;;;;;;;3.63;80.63;101817.31;4965528;28;20054;-73
2021/03/09 02:36:56;;;;;;;68.63;28.53;;;;;;;3.59;80.87;101815.75;4960172;28;20145;-74
2021/03/09 02:39:24;;;;;;;64.22;28.15;;;;;;;3.66;80.97;101806.75;4963425;28;20093;-74
2021/03/09 02:41:52;;;;;;;58.00;27.17;;;;;;;3.70;81.09;101810.88;4934424;28;20091;-73
2021/03/09 02:44:21;;;;;;;68.13;29.40;;;;;;;3.73;80.82;101813.31;4964661;28;20058;-73
2021/03/09 02:46:48;;;;;;;70.22;30.33;;;;;;;3.67;80.51;101798.06;4943212;28;20090;-73
2021/03/09 02:49:30;;;;;;;66.15;29.88;;;;;;;3.70;80.66;101798.72;4965358;28;20059;-73
2021/03/09 02:52:25;;;;;;;62.33;26.55;;;;;;;3.63;80.55;101799.16;4965786;28;20057;-74
2021/03/09 02:54:52;;;;;;;63.80;29.10;;;;;;;3.67;80.75;101795.47;4961924;28;20146;-74
2021/03/09 02:57:20;;;;;;;69.50;32.13;;;;;;;3.67;80.90;101798.91;4927871;28;20086;-74
2021/03/09 02:59:47;;;;;;;73.25;31.23;;;;;;;3.70;81.12;101790.13;4964177;28;20487;-73
2021/03/09 03:02:17;;;;;;;69.35;32.00;;;;;;;3.75;81.11;101782.94;4965999;28;20296;-74
2021/03/09 03:04:47;;;;;;;73.25;32.80;;;;;;;3.69;80.79;101784.09;4958129;28;20159;-74
2021/03/09 03:07:15;;;;;;;74.43;33.20;;;;;;;3.70;81.29;101783.16;4948846;28;20082;-74
2021/03/09 03:09:43;;;;;;;69.67;29.93;;;;;;;3.70;81.27;101775.38;4938658;28;20121;-74
2021/03/09 03:12:11;;;;;;;81.80;33.30;;;;;;;3.71;81.37;101784.84;4946491;28;20146;-74
2021/03/09 03:14:44;;;;;;;78.60;32.97;;;;;;;3.65;81.25;101774.78;4958850;28;20090;-74
2021/03/09 03:17:14;;;;;;;70.68;32.10;;;;;;;3.68;81.29;101763.41;4966175;28;20086;-74
2021/03/09 03:19:50;;;;;;;85.18;36.90;;;;;;;3.68;81.27;101761.66;4962478;28;20077;-74
2021/03/09 03:22:17;;;;;;;66.38;30.25;;;;;;;3.66;81.46;101760.06;4943234;28;20090;-74
2021/03/09 03:24:49;;;;;;;83.70;36.23;;;;;;;3.70;81.61;101753.78;4962747;28;20090;-74
2021/03/09 03:27:17;;;;;;;78.88;36.28;;;;;;;3.76;81.76;101758.66;4959555;28;20566;-74
2021/03/09 03:29:43;;;;;;;88.07;36.92;;;;;;;3.75;81.61;101755.22;4964740;28;20101;-74
2021/03/09 03:32:12;;;;;;;90.50;39.15;;;;;;;3.67;81.70;101747.00;4959200;28;20070;-74
2021/03/09 03:34:38;;;;;;;80.28;35.08;;;;;;;3.68;81.52;101746.06;4946806;28;20061;-74
2021/03/09 03:37:04;;;;;;;90.75;38.53;;;;;;;3.67;81.46;101747.00;4936534;28;20145;-74
2021/03/09 03:39:31;;;;;;;86.47;38.53;;;;;;;3.78;81.48;101754.22;4960934;28;20501;-74
2021/03/09 03:41:57;;;;;;;86.88;40.25;;;;;;;3.78;81.38;101745.59;4952742;28;20523;-74
2021/03/09 03:44:24;;;;;;;93.72;39.60;;;;;;;3.81;81.27;101740.28;4957521;28;20134;-74
2021/03/09 03:46:50;;;;;;;104.25;43.67;;;;;;;3.71;81.97;101745.09;4939716;28;20190;-74
2021/03/09 03:49:16;;;;;;;101.18;42.80;;;;;;;3.73;81.63;101740.66;4953377;28;20157;-73
2021/03/09 03:51:47;;;;;;;98.72;43.80;;;;;;;3.82;81.59;101741.94;4943146;28;20779;-73
2021/03/09 03:54:30;;;;;;;100.03;43.85;;;;;;;3.80;81.80;101741.19;4958857;28;20054;-73
2021/03/09 03:57:18;;;;;;;92.63;42.85;;;;;;;3.73;81.83;101741.50;4949024;28;20051;-73
2021/03/09 03:59:48;;;;;;;113.45;46.58;;;;;;;3.69;82.41;101728.78;4929284;28;20098;-73
2021/03/09 04:02:16;;;;;;;97.38;43.13;;;;;;;3.73;81.85;101733.72;4964489;28;20094;-73
2021/03/09 04:04:46;;;;;;;104.10;44.20;;;;;;;3.70;82.11;101731.25;4951475;28;20058;-73
2021/03/09 04:07:13;;;;;;;102.55;45.22;;;;;;;3.79;82.17;101731.72;4932191;28;20566;-73
2021/03/09 04:09:44;;;;;;;109.07;45.33;;;;;;;3.81;82.50;101735.06;4964888;28;20055;-73
2021/03/09 04:12:11;;;;;;;98.78;43.00;;;;;;;3.79;82.55;101731.72;4938590;28;20063;-73
2021/03/09 04:14:38;;;;;;;97.40;45.80;;;;;;;3.79;82.22;101731.72;4958596;28;20125;-74
2021/03/09 04:17:05;;;;;;;107.03;44.90;;;;;;;3.76;82.22;101730.09;4941193;28;20122;-73
2021/03/09 04:19:32;;;;;;;109.43;45.55;;;;;;;3.75;82.70;101721.50;4961057;28;20067;-74
2021/03/09 04:21:59;;;;;;;107.80;46.42;;;;;;;3.79;82.62;101722.19;4941016;28;20059;-73
2021/03/09 04:24:27;;;;;;;108.05;46.83;;;;;;;3.85;82.36;101718.44;4964348;28;20117;-73
2021/03/09 04:26:54;;;;;;;105.53;46.17;;;;;;;3.84;82.41;101717.59;4958986;28;20834;-73
2021/03/09 04:29:21;;;;;;;111.00;44.95;;;;;;;3.81;82.02;101715.16;4945053;28;20129;-73
2021/03/09 04:31:47;;;;;;;93.70;42.28;;;;;;;3.80;82.65;101712.63;4950184;28;20059;-73
2021/03/09 04:34:16;;;;;;;106.15;45.67;;;;;;;3.81;82.65;101707.38;4945615;28;20110;-73
2021/03/09 04:36:43;;;;;;;98.07;43.42;;;;;;;3.73;82.80;101723.34;4944774;28;20097;-73
2021/03/09 04:39:10;;;;;;;92.45;40.88;;;;;;;3.66;82.99;101703.81;4958829;28;20054;-74
2021/03/09 04:41:37;;;;;;;113.43;48.40;;;;;;;3.72;83.20;101711.28;4957171;28;20055;-74
2021/03/09 04:44:04;;;;;;;108.53;47.80;;;;;;;3.67;83.01;101712.44;4958191;28;20118;-74
2021/03/09 04:46:30;;;;;;;122.50;51.88;;;;;;;3.69;83.37;101708.00;4963150;28;20578;-74
2021/03/09 04:48:58;;;;;;;101.15;42.17;;;;;;;3.77;83.28;101713.63;4946369;28;20435;-74
2021/03/09 04:51:26;;;;;;;108.60;47.17;;;;;;;3.79;83.32;101708.38;4950488;28;20490;-74
2021/03/09 04:53:52;;;;;;;95.13;43.22;;;;;;;3.79;83.07;101710.97;4975038;28;20507;-74
2021/03/09 04:56:19;;;;;;;91.70;43.47;;;;;;;3.77;82.98;101700.66;4961626;28;20506;-74
2021/03/09 04:58:45;;;;;;;93.90;41.10;;;;;;;3.76;83.57;101707.63;4974343;28;20094;-74
2021/03/09 05:01:11;;;;;;;96.97;43.05;;;;;;;3.75;83.02;101695.53;4964746;28;20133;-74
2021/03/09 05:03:37;;;;;;;95.95;42.85;;;;;;;3.80;83.29;101697.88;4952461;28;20897;-74
2021/03/09 05:06:03;;;;;;;105.30;42.58;;;;;;;3.80;83.15;101695.28;4963518;28;20646;-74
2021/03/09 05:08:29;;;;;;;100.47;43.10;;;;;;;3.86;83.54;101699.31;4971293;28;20543;-74
2021/03/09 05:10:56;;;;;;;100.15;41.42;;;;;;;3.87;83.08;101707.03;4959842;28;20068;-74
2021/03/09 05:13:22;;;;;;;99.13;44.20;;;;;;;3.79;83.21;101704.00;4944102;28;20059;-74
2021/03/09 05:15:48;;;;;;;87.78;37.63;;;;;;;3.76;83.30;101698.97;4953306;28;20119;-74
2021/03/09 05:18:15;;;;;;;98.15;42.70;;;;;;;3.81;83.36;101699.56;4956857;28;20715;-74
2021/03/09 05:20:42;;;;;;;91.65;40.00;;;;;;;3.78;83.83;101698.91;4944812;28;20055;-74
2021/03/09 05:23:08;;;;;;;103.32;43.28;;;;;;;3.73;83.59;101699.16;4959458;28;20062;-74
2021/03/09 05:25:35;;;;;;;84.75;36.22;;;;;;;3.73;83.36;101693.97;4964226;28;20090;-74
2021/03/09 05:28:01;;;;;;;100.50;41.20;;;;;;;3.82;83.68;101701.22;4957325;28;20082;-74
2021/03/09 05:30:27;;;;;;;109.95;45.50;;;;;;;3.81;83.74;101694.38;4964620;28;20095;-74
2021/03/09 05:32:53;;;;;;;98.28;42.78;;;;;;;3.85;83.50;101695.06;4969528;28;20229;-74
2021/03/09 05:35:20;;;;;;;111.63;45.80;;;;;;;3.83;83.53;101691.72;4958226;28;20062;-74
2021/03/09 05:37:46;;;;;;;107.75;46.35;;;;;;;3.86;83.46;101688.94;4966329;28;20090;-74
2021/03/09 05:40:16;;;;;;;109.32;45.38;;;;;;;3.89;83.39;101689.63;4960834;28;20050;-73
2021/03/09 05:42:47;;;;;;;97.90;43.65;;;;;;;3.85;83.37;101685.50;4969144;28;20141;-74
2021/03/09 05:45:13;;;;;;;110.38;46.38;;;;;;;3.93;83.24;101690.28;4967281;28;20055;-74
2021/03/09 05:47:40;;;;;;;111.25;48.97;;;;;;;3.85;83.62;101690.69;4967064;28;20541;-74
2021/03/09 05:50:07;;;;;;;103.80;47.35;;;;;;;3.86;83.76;101687.22;4970728;28;20050;-73
2021/03/09 05:52:35;;;;;;;114.30;48.13;;;;;;;3.86;83.86;101684.59;4929264;28;20578;-74
2021/03/09 05:55:02;;;;;;;118.57;48.97;;;;;;;3.84;83.89;101691.63;4951040;28;20133;-75
2021/03/09 05:57:30;;;;;;;118.80;49.67;;;;;;;3.87;84.00;101688.88;4970993;28;20086;-74
2021/03/09 05:59:56;;;;;;;120.15;50.58;;;;;;;3.81;84.11;101680.56;4970504;28;20086;-74
2021/03/09 06:02:22;;;;;;;127.00;51.40;;;;;;;3.84;83.92;101677.81;4960057;28;20058;-74
2021/03/09 06:04:49;;;;;;;127.05;55.55;;;;;;;3.88;84.01;101680.16;4961960;28;20065;-74
2021/03/09 06:07:18;;;;;;;117.65;50.00;;;;;;;3.91;84.20;101677.41;4960152;28;20121;-74
2021/03/09 06:09:45;;;;;;;106.43;48.30;;;;;;;3.89;84.25;101676.63;4959742;28;20098;-74
2021/03/09 06:12:18;;;;;;;128.82;55.40;;;;;;;3.86;83.83;101670.78;4963728;28;20081;-75
2021/03/09 06:15:00;;;;;;;118.90;50.17;;;;;;;3.90;84.18;101672.28;4960214;28;20173;-75
2021/03/09 06:17:35;;;;;;;121.40;50.00;;;;;;;3.97;83.93;101671.03;4962197;28;20054;-74
2021/03/09 06:20:17;;;;;;;119.85;48.95;;;;;;;3.92;83.73;101676.50;4954622;28;20197;-75
2021/03/09 06:22:45;;;;;;;129.88;52.95;;;;;;;3.97;84.08;101673.63;4956607;28;20074;-75
2021/03/09 06:25:18;;;;;;;134.07;52.53;;;;;;;3.99;84.39;101670.97;4958531;28;20121;-75
2021/03/09 06:27:45;;;;;;;130.05;54.58;;;;;;;4.04;84.10;101669.78;4964607;28;20462;-75
2021/03/09 06:30:26;;;;;;;128.35;52.67;;;;;;;3.99;83.97;101664.00;4960920;28;20082;-75
2021/03/09 06:32:53;;;;;;;126.10;50.00;;;;;;;4.04;84.14;101671.53;4961532;28;20141;-75
2021/03/09 06:35:40;;;;;;;132.85;54.92;;;;;;;4.02;83.84;101673.38;4958179;28;20419;-74
2021/03/09 06:38:27;;;;;;;114.45;49.15;;;;;;;3.99;84.04;101671.78;4965176;28;20074;-74
2021/03/09 06:41:16;;;;;;;122.63;51.30;;;;;;;3.99;84.38;101668.38;4947285;28;20054;-74
2021/03/09 06:43:57;;;;;;;131.50;53.03;;;;;;;3.94;84.99;101668.63;4946154;28;20205;-75
2021/03/09 06:46:23;;;;;;;123.35;51.75;;;;;;;3.96;84.51;101669.38;4966218;28;20558;-74
2021/03/09 06:49:03;;;;;;;129.27;52.35;;;;;;;3.96;84.64;101664.19;4936697;28;20074;-74
2021/03/09 06:51:33;;;;;;;129.75;51.45;;;;;;;3.97;84.48;101669.28;4964913;28;20768;-75
2021/03/09 06:54:11;;;;;;;140.43;53.25;;;;;;;4.02;84.73;101676.84;4947514;28;20142;-75
2021/03/09 06:56:39;;;;;;;122.03;52.25;;;;;;;4.04;84.73;101672.41;4957318;28;20439;-75
2021/03/09 06:59:31;;;;;;;123.13;50.88;;;;;;;4.11;84.43;101670.28;4941098;28;20062;-75
2021/03/09 07:02:12;;;;;;;136.27;53.83;;;;;;;4.14;84.82;101673.56;4960107;28;20063;-74
2021/03/09 07:04:47;;;;;;;126.35;52.28;;;;;;;4.14;84.76;101686.53;4955324;28;20050;-74
2021/03/09 07:07:19;;;;;;;127.43;49.92;;;;;;;4.20;84.70;101684.53;4965710;28;20090;-75
2021/03/09 07:09:57;;;;;;;119.25;51.17;;;;;;;4.23;85.01;101679.16;4943186;28;20085;-75
2021/03/09 07:12:24;;;;;;;122.88;50.83;;;;;;;4.22;84.97;101685.28;4946228;28;20419;-74
2021/03/09 07:14:51;;;;;;;135.32;51.88;;;;;;;4.21;84.98;101689.63;4958944;28;20538;-74
2021/03/09 07:17:20;;;;;;;130.30;51.40;;;;;;;4.25;84.95;101685.94;4957771;28;20640;-74
2021/03/09 07:19:47;;;;;;;119.93;50.88;;;;;;;4.33;85.01;101686.38;4963175;28;20434;-74
2021/03/09 07:22:16;;;;;;;118.47;50.05;;;;;;;4.35;84.86;101694.06;4958612;28;20208;-74
2021/03/09 07:24:55;;;;;;;133.48;52.92;;;;;;;4.40;84.80;101694.66;4942075;28;20126;-74
2021/03/09 07:27:27;;;;;;;115.35;50.60;;;;;;;4.38;84.82;101687.88;4959247;28;20463;-74
2021/03/09 07:29:56;;;;;;;124.47;53.63;;;;;;;4.42;85.05;101695.41;4962229;28;20146;-74
2021/03/09 07:32:25;;;;;;;115.57;48.78;;;;;;;4.32;85.11;101683.88;4958221;28;21005;-74
2021/03/09 07:34:52;;;;;;;136.25;54.92;;;;;;;4.41;85.04;101693.75;4962091;28;20054;-75
2021/03/09 07:37:18;;;;;;;133.65;53.40;;;;;;;4.47;85.15;101696.00;4953843;28;20094;-74
2021/03/09 07:39:45;;;;;;;125.40;50.20;;;;;;;4.44;85.21;101696.16;4959109;28;20086;-75
2021/03/09 07:42:12;;;;;;;130.23;54.17;;;;;;;4.47;85.41;101689.94;4948666;28;20155;-74
2021/03/09 07:44:40;;;;;;;142.45;53.78;;;;;;;4.54;85.33;101692.13;4954293;28;20165;-74
2021/03/09 07:47:08;;;;;;;130.57;52.83;;;;;;;4.56;85.35;101690.28;4964388;28;20057;-74
2021/03/09 07:49:35;;;;;;;128.90;53.53;;;;;;;4.62;85.39;101690.88;4955268;28;20145;-74
2021/03/09 07:52:14;;;;;;;132.32;51.63;;;;;;;4.62;85.45;101696.91;4967097;28;20112;-74
2021/03/09 07:55:01;;;;;;;133.60;52.00;;;;;;;4.58;86.02;101695.41;4925191;28;20705;-73
2021/03/09 07:57:28;;;;;;;126.88;51.60;;;;;;;4.67;85.65;101694.88;4944573;28;20414;-74
2021/03/09 08:00:07;;;;;;;120.72;49.90;;;;;;;4.71;85.53;101704.19;4960245;28;20050;-73
2021/03/09 08:02:42;;;;;;;;;;;;;;;4.82;85.48;101706.19;4936256;28;20062;-74
2021/03/09 08:05:10;;;;;;;111.47;44.70;;;;;;;4.87;85.21;101706.75;4956397;28;20413;-75
2021/03/09 08:08:03;;;;;;;105.53;45.20;;;;;;;4.89;85.39;101698.84;4944292;28;20154;-74
2021/03/09 08:10:43;;;;;;;98.90;44.70;;;;;;;4.97;84.98;101703.63;4951985;28;20122;-74
2021/03/09 08:13:08;;;;;;;109.55;44.58;;;;;;;5.01;85.23;101707.72;4959833;28;20406;-74
2021/03/09 08:15:35;;;;;;;95.20;41.50;;;;;;;5.08;85.25;101709.88;4937043;28;20086;-74
2021/03/09 08:18:23;;;;;;;86.25;39.28;;;;;;;5.19;84.89;101705.81;4939799;28;20105;-75
2021/03/09 08:20:54;;;;;;;79.97;36.47;;;;;;;5.26;84.84;101712.34;4951136;28;20059;-74
2021/03/09 08:25:59;;;;;;;75.50;34.60;;;;;;;5.37;84.43;101706.47;4955157;28;21049;-75
2021/03/09 08:28:32;;;;;;;74.50;32.85;;;;;;;5.43;84.73;101706.13;4960214;28;20117;-74
2021/03/09 08:31:16;;;;;;;72.35;33.58;;;;;;;5.47;84.86;101699.81;4954724;28;20207;-74
2021/03/09 08:34:07;;;;;;;70.78;33.08;;;;;;;5.57;84.39;101710.50;4933881;28;20142;-74
2021/03/09 08:36:36;;;;;;;71.47;32.33;;;;;;;5.62;84.19;101703.25;4965091;28;20089;-74
2021/03/09 08:39:08;;;;;;;59.70;29.85;;;;;;;5.67;84.39;101712.47;4959564;28;20285;-74
2021/03/09 08:41:34;;;;;;;57.95;27.52;;;;;;;5.73;84.10;101706.88;4966009;28;20059;-74
2021/03/09 08:44:23;;;;;;;55.15;27.10;;;;;;;5.79;83.59;101705.69;4964618;28;20134;-75
2021/03/09 08:46:56;;;;;;;55.75;26.35;;;;;;;5.78;83.86;101706.59;4962064;28;20398;-74
2021/03/09 08:49:39;;;;;;;53.78;26.08;;;;;;;5.87;83.90;101710.41;4944128;28;20059;-75
2021/03/09 08:52:28;;;;;;;49.40;23.88;;;;;;;5.92;83.71;101700.56;4969779;28;20534;-75
2021/03/09 08:54:54;;;;;;;42.20;22.70;;;;;;;5.98;83.46;101704.56;4934483;28;20137;-74
2021/03/09 08:57:21;;;;;;;42.75;21.08;;;;;;;6.02;83.25;101699.09;4967781;28;20112;-75
2021/03/09 08:59:50;;;;;;;47.63;21.30;;;;;;;6.12;83.24;101699.34;4962741;28;20138;-75
2021/03/09 09:02:17;;;;;;;38.78;17.92;;;;;;;6.15;82.74;101704.34;4938301;28;20550;-74
2021/03/09 09:05:06;;;;;;;34.95;17.70;;;;;;;6.12;83.19;101694.97;4965375;28;20073;-75
2021/03/09 09:07:39;;;;;;;34.97;15.82;;;;;;;6.14;82.63;101689.69;4958846;28;20066;-75
2021/03/09 09:10:18;;;;;;;33.03;13.60;;;;;;;6.23;82.33;101689.06;4946917;28;20129;-75
2021/03/09 09:12:46;;;;;;;29.08;13.27;;;;;;;6.35;82.17;101703.13;4940870;28;20165;-74
2021/03/09 09:15:13;;;;;;;29.42;12.13;;;;;;;6.41;81.98;101697.53;4953658;28;20087;-74
2021/03/09 09:17:43;;;;;;;19.20;9.25;;;;;;;6.40;81.05;101705.44;4947742;28;20055;-75
2021/03/09 09:20:20;;;;;;;20.17;8.07;;;;;;;6.44;81.27;101701.69;4947686;28;20062;-73
2021/03/09 09:22:47;;;;;;;17.73;8.57;;;;;;;6.47;81.37;101699.72;4964517;28;20125;-73
2021/03/09 09:25:15;;;;;;;22.65;8.23;;;;;;;6.55;80.98;101699.25;4958771;28;20147;-73
2021/03/09 09:27:48;;;;;;;14.50;7.07;;;;;;;6.51;80.36;101696.00;4961795;28;20086;-75
2021/03/09 09:30:20;;;;;;;13.30;6.53;;;;;;;6.58;80.10;101695.59;4937747;28;20086;-73
2021/03/09 09:32:54;;;;;;;14.98;6.72;;;;;;;6.53;79.96;101695.91;4964438;28;20118;-73
2021/03/09 09:35:24;;;;;;;15.43;7.20;;;;;;;6.60;80.67;101707.59;4945470;28;20055;-73
2021/03/09 09:37:53;;;;;;;15.85;6.88;;;;;;;6.67;80.56;101702.84;4949619;28;20059;-73
2021/03/09 09:40:21;;;;;;;16.10;6.55;;;;;;;6.72;79.38;101693.78;4962051;28;20051;-74
2021/03/09 09:42:52;;;;;;;17.35;6.78;;;;;;;6.77;79.52;101703.06;4963411;28;20507;-73
2021/03/09 09:45:18;;;;;;;13.93;5.80;;;;;;;6.87;79.50;101701.53;4959907;28;20125;-73
2021/03/09 09:47:48;;;;;;;13.45;5.10;;;;;;;6.91;78.30;101697.78;4967963;28;20110;-73
2021/03/09 09:50:15;;;;;;;14.27;5.38;;;;;;;7.00;79.77;101697.19;4968662;28;20065;-73
2021/03/09 09:52:54;;;;;;;10.23;5.25;;;;;;;7.06;78.50;101696.75;4968803;28;20450;-73
2021/03/09 09:55:22;;;;;;;10.85;5.10;;;;;;;7.14;79.00;101701.47;4964769;28;20094;-73
2021/03/09 09:57:50;;;;;;;10.63;5.10;;;;;;;7.13;78.93;101698.03;4944003;28;20459;-73
2021/03/09 10:00:17;;;;;;;16.10;4.80;;;;;;;7.08;77.72;101692.28;4961724;28;20140;-73
2021/03/09 10:02:43;;;;;;;8.85;4.57;;;;;;;7.09;77.58;101700.94;4961677;28;20328;-73
2021/03/09 10:05:25;;;;;;;9.23;4.10;;;;;;;7.12;78.03;101703.34;4968430;28;20145;-73
2021/03/09 10:07:51;;;;;;;11.35;4.65;;;;;;;7.12;77.83;101701.56;4962243;28;20515;-74
2021/03/09 10:10:17;;;;;;;10.15;4.97;;;;;;;7.16;77.52;101706.59;4939567;28;20142;-74
2021/03/09 10:12:44;;;;;;;14.75;5.53;;;;;;;7.23;77.50;101706.09;4957829;28;20146;-74
2021/03/09 10:15:11;;;;;;;9.30;4.15;;;;;;;7.30;76.75;101703.88;4962710;28;20447;-74
2021/03/09 10:17:38;;;;;;;12.32;5.10;;;;;;;7.41;77.89;101696.19;4968102;28;20561;-73
2021/03/09 10:20:17;;;;;;;12.70;4.15;;;;;;;7.36;76.74;101706.09;4948089;28;20055;-73
2021/03/09 10:22:43;;;;;;;5.38;3.45;;;;;;;7.26;75.97;101708.47;4967031;28;20846;-74
2021/03/09 10:25:11;;;;;;;8.00;3.25;;;;;;;7.24;75.09;101706.91;4936025;28;20106;-74
2021/03/09 10:27:37;;;;;;;7.05;2.60;;;;;;;7.08;74.94;101710.53;4957982;28;20141;-74
2021/03/09 10:30:04;;;;;;;11.52;3.10;;;;;;;7.09;75.05;101712.19;4962734;28;20518;-74
2021/03/09 10:32:30;;;;;;;5.88;2.67;;;;;;;7.08;74.99;101707.09;4966893;28;20159;-73
2021/03/09 10:35:06;;;;;;;9.38;3.03;;;;;;;7.08;74.38;101714.94;4954822;28;20494;-73
2021/03/09 10:37:35;;;;;;;6.05;2.67;;;;;;;7.15;75.61;101705.75;4941163;28;20105;-73
2021/03/09 10:40:04;;;;;;;8.15;3.10;;;;;;;7.19;75.89;101707.19;4945020;28;20059;-73
2021/03/09 10:42:35;;;;;;;8.13;3.13;;;;;;;7.31;75.72;101715.97;4961581;28;20093;-74
2021/03/09 10:45:16;;;;;;;8.85;3.63;;;;;;;7.38;75.42;101713.81;4967947;28;20063;-73
2021/03/09 10:47:46;;;;;;;8.27;2.88;;;;;;;7.33;74.41;101714.09;4948715;28;20067;-73
2021/03/09 10:50:14;;;;;;;3.75;2.60;;;;;;;7.37;75.28;101697.31;4967462;28;20063;-73
2021/03/09 10:52:40;;;;;;;6.65;2.38;;;;;;;7.36;74.19;101703.47;4964068;28;20628;-73
2021/03/09 10:55:06;;;;;;;5.05;2.25;;;;;;;7.47;74.69;101703.59;4967283;28;20898;-75
2021/03/09 10:57:33;;;;;;;5.10;2.17;;;;;;;7.45;74.67;101705.47;4964528;28;20053;-73
2021/03/09 11:00:02;;;;;;;4.45;2.00;;;;;;;7.51;74.02;101701.59;4966515;28;20505;-73
2021/03/09 11:02:28;;;;;;;3.78;1.88;;;;;;;7.65;74.45;101706.72;4967279;28;20531;-73
2021/03/09 11:04:54;;;;;;;3.55;1.77;;;;;;;7.62;73.58;101696.47;4943333;28;20110;-73
2021/03/09 11:07:20;;;;;;;6.70;2.58;;;;;;;7.71;74.12;101702.84;4946875;28;20137;-73
2021/03/09 11:09:46;;;;;;;8.48;2.55;;;;;;;7.52;72.31;101708.47;4958071;28;20079;-73
2021/03/09 11:12:12;;;;;;;4.03;1.88;;;;;;;7.64;72.71;101694.56;4952599;28;20508;-73
2021/03/09 11:14:39;;;;;;;4.82;2.22;;;;;;;7.65;73.37;101709.31;4924736;28;20059;-73
2021/03/09 11:17:05;;;;;;;4.25;1.80;;;;;;;7.66;73.54;101697.09;4951944;28;20050;-73
2021/03/09 11:19:32;;;;;;;2.33;1.52;;;;;;;7.72;73.35;101696.66;4944217;28;20517;-74
2021/03/09 11:22:01;;;;;;;3.50;1.58;;;;;;;7.68;70.61;101698.69;4959404;28;20817;-74
2021/03/09 11:24:27;;;;;;;3.38;1.70;;;;;;;7.76;72.54;101702.50;4955436;28;20091;-73
2021/03/09 11:27:00;;;;;;;2.33;1.50;;;;;;;7.73;70.99;101693.94;4959890;28;20073;-73
2021/03/09 11:29:30;;;;;;;4.53;1.20;;;;;;;7.80;70.35;101697.00;4966658;28;20071;-73
2021/03/09 11:31:56;;;;;;;5.28;1.83;;;;;;;7.86;71.06;101704.38;4955826;28;20162;-73